createdAt,value
2023-04-27T00:01:38.678Z,76.30
2023-04-27T00:04:07.724Z,77.50
2023-04-27T00:06:34.923Z,77.30
2023-04-27T00:09:01.707Z,76.90
2023-04-27T00:11:28.514Z,77.00
2023-04-27T00:13:56.070Z,77.20
2023-04-27T00:16:23.005Z,78.00
2023-04-27T00:18:49.911Z,77.90
2023-04-27T00:21:16.699Z,78.20
2023-04-27T00:23:43.963Z,77.60
2023-04-27T00:26:10.803Z,77.40
2023-04-27T00:28:39.398Z,77.50
2023-04-27T00:31:06.483Z,77.30
2023-04-27T00:33:33.455Z,77.90
2023-04-27T00:36:01.573Z,78.50
2023-04-27T00:38:31.529Z,78.60
2023-04-27T00:41:05.861Z,77.70
2023-04-27T00:43:33.467Z,77.90
2023-04-27T00:46:00.557Z,78.00
2023-04-27T00:48:27.716Z,78.30
2023-04-27T00:50:54.777Z,78.30
2023-04-27T00:53:21.673Z,78.00
2023-04-27T00:55:49.520Z,78.60
2023-04-27T00:58:16.349Z,78.30
2023-04-27T01:00:43.320Z,78.90
2023-04-27T01:03:10.361Z,78.90
2023-04-27T01:05:38.056Z,79.20
2023-04-27T01:08:05.390Z,79.40
2023-04-27T01:10:32.171Z,79.70
2023-04-27T01:12:59.181Z,79.30
2023-04-27T01:15:26.168Z,79.60
2023-04-27T01:18:02.848Z,79.50
2023-04-27T01:20:30.450Z,79.90
2023-04-27T01:22:58.505Z,80.30
2023-04-27T01:25:26.097Z,79.50
2023-04-27T01:27:54.145Z,79.20
2023-04-27T01:30:22.560Z,79.20
2023-04-27T01:32:50.112Z,79.00
2023-04-27T01:35:19.288Z,79.10
2023-04-27T01:37:46.248Z,79.50
2023-04-27T01:40:13.553Z,79.40
2023-04-27T01:42:40.333Z,80.00
2023-04-27T01:45:09.408Z,79.90
2023-04-27T01:47:36.377Z,80.00
2023-04-27T01:50:03.912Z,79.90
2023-04-27T01:52:30.654Z,79.90
2023-04-27T01:54:57.504Z,80.20
2023-04-27T01:57:25.287Z,80.70
2023-04-27T01:59:52.028Z,80.80
2023-04-27T02:02:18.900Z,80.70
2023-04-27T02:04:45.909Z,80.60
2023-04-27T02:07:12.687Z,81.40
2023-04-27T02:09:39.469Z,81.10
2023-04-27T02:12:06.451Z,80.90
2023-04-27T02:14:33.431Z,80.30
2023-04-27T02:17:00.318Z,80.50
2023-04-27T02:19:27.172Z,80.40
2023-04-27T02:21:53.958Z,80.50
2023-04-27T02:24:21.203Z,80.20
2023-04-27T02:26:47.951Z,80.20
2023-04-27T02:29:15.240Z,80.40
2023-04-27T02:31:42.495Z,80.20
2023-04-27T02:34:10.524Z,80.30
2023-04-27T02:36:37.635Z,79.70
2023-04-27T02:39:05.608Z,80.00
2023-04-27T02:41:32.949Z,80.60
2023-04-27T02:43:59.776Z,80.60
2023-04-27T02:46:27.432Z,80.80
2023-04-27T02:48:55.369Z,80.60
2023-04-27T02:51:23.890Z,81.10
2023-04-27T02:53:52.508Z,80.80
2023-04-27T02:56:19.321Z,81.30
2023-04-27T02:58:47.876Z,81.20
2023-04-27T03:01:17.937Z,81.40
2023-04-27T03:03:48.148Z,81.40
2023-04-27T03:06:15.235Z,81.30
2023-04-27T03:08:42.233Z,81.20
2023-04-27T03:11:12.495Z,81.30
2023-04-27T03:13:42.340Z,81.50
2023-04-27T03:16:11.345Z,81.20
2023-04-27T03:18:39.401Z,81.10
2023-04-27T03:21:10.802Z,81.40
2023-04-27T03:23:38.236Z,81.20
2023-04-27T03:26:09.308Z,80.80
2023-04-27T03:28:36.629Z,80.90
2023-04-27T03:31:09.656Z,80.80
2023-04-27T03:33:37.437Z,80.80
2023-04-27T03:36:05.403Z,80.90
2023-04-27T03:38:32.864Z,81.20
2023-04-27T03:40:59.876Z,80.70
2023-04-27T03:43:27.351Z,80.80
2023-04-27T03:45:54.496Z,80.50
2023-04-27T03:48:21.740Z,80.60
2023-04-27T03:50:49.912Z,80.50
2023-04-27T03:53:16.692Z,80.80
2023-04-27T03:55:44.930Z,82.20
2023-04-27T03:58:12.597Z,83.10
2023-04-27T04:00:52.208Z,83.00
2023-04-27T04:03:19.239Z,83.20
2023-04-27T04:05:47.160Z,83.50
2023-04-27T04:08:14.541Z,84.00
2023-04-27T04:10:41.384Z,83.50
2023-04-27T04:13:09.899Z,83.60
2023-04-27T04:15:37.409Z,83.30
2023-04-27T04:18:04.414Z,82.80
2023-04-27T04:20:31.187Z,83.30
2023-04-27T04:22:57.883Z,83.00
2023-04-27T04:25:26.196Z,83.50
2023-04-27T04:27:52.991Z,83.70
2023-04-27T04:30:19.977Z,83.80
2023-04-27T04:32:46.896Z,83.60
2023-04-27T04:35:14.200Z,83.20
2023-04-27T04:37:41.317Z,83.20
2023-04-27T04:40:09.388Z,83.50
2023-04-27T04:42:37.872Z,83.20
2023-04-27T04:45:07.062Z,82.80
2023-04-27T04:47:35.019Z,82.80
2023-04-27T04:50:02.031Z,82.90
2023-04-27T04:52:30.901Z,82.50
2023-04-27T04:54:57.630Z,82.80
2023-04-27T04:57:24.379Z,83.20
2023-04-27T04:59:51.307Z,83.00
2023-04-27T05:02:18.093Z,82.90
2023-04-27T05:04:45.557Z,83.30
2023-04-27T05:07:14.913Z,82.90
2023-04-27T05:09:42.416Z,82.60
2023-04-27T05:12:09.244Z,82.30
2023-04-27T05:14:36.112Z,82.30
2023-04-27T05:17:02.920Z,82.10
2023-04-27T05:19:31.124Z,81.90
2023-04-27T05:21:58.843Z,81.30
2023-04-27T05:24:26.275Z,80.90
2023-04-27T05:26:54.333Z,81.00
2023-04-27T05:29:22.185Z,80.90
2023-04-27T05:31:49.466Z,80.70
2023-04-27T05:34:16.721Z,80.60
2023-04-27T05:36:43.795Z,80.20
2023-04-27T05:39:10.749Z,80.50
2023-04-27T05:41:37.543Z,79.70
2023-04-27T05:44:04.580Z,78.50
2023-04-27T05:46:31.681Z,78.10
2023-04-27T05:48:58.691Z,78.10
2023-04-27T05:51:25.580Z,77.30
2023-04-27T05:53:55.179Z,77.20
2023-04-27T05:56:22.614Z,76.70
2023-04-27T05:58:49.460Z,75.60
2023-04-27T06:01:16.329Z,74.60
2023-04-27T06:03:43.438Z,74.80
2023-04-27T06:06:10.311Z,74.20
2023-04-27T06:08:39.302Z,74.30
2023-04-27T06:11:06.657Z,74.30
2023-04-27T06:13:33.834Z,73.30
2023-04-27T06:16:01.357Z,72.60
2023-04-27T06:18:28.312Z,72.00
2023-04-27T06:21:01.192Z,72.50
2023-04-27T06:23:28.387Z,71.70
2023-04-27T06:25:55.677Z,71.20
2023-04-27T06:28:22.469Z,71.90
2023-04-27T06:30:49.550Z,72.70
2023-04-27T06:33:16.355Z,72.10
2023-04-27T06:35:46.521Z,71.90
2023-04-27T06:38:14.276Z,72.00
2023-04-27T06:40:41.099Z,71.30
2023-04-27T06:43:07.862Z,71.00
2023-04-27T06:45:34.593Z,70.80
2023-04-27T06:48:01.465Z,70.50
2023-04-27T06:50:29.186Z,70.60
2023-04-27T06:52:55.950Z,71.00
2023-04-27T06:55:22.695Z,69.70
2023-04-27T06:57:49.427Z,70.30
2023-04-27T07:00:16.537Z,70.30
2023-04-27T07:02:43.850Z,69.50
2023-04-27T07:05:10.924Z,68.20
2023-04-27T07:07:37.652Z,67.60
2023-04-27T07:10:04.751Z,67.60
2023-04-27T07:12:31.572Z,67.90
2023-04-27T07:14:58.345Z,68.30
2023-04-27T07:17:25.194Z,67.20
2023-04-27T07:19:51.985Z,65.60
2023-04-27T07:22:20.057Z,64.20
2023-04-27T07:24:46.898Z,64.30
2023-04-27T07:27:14.999Z,63.90
2023-04-27T07:29:42.335Z,61.70
2023-04-27T07:32:09.462Z,58.60
2023-04-27T07:34:49.209Z,57.00
2023-04-27T07:37:20.433Z,56.30
2023-04-27T07:39:48.684Z,53.80
2023-04-27T07:42:15.924Z,52.40
2023-04-27T07:44:42.744Z,51.80
2023-04-27T07:47:10.028Z,49.50
2023-04-27T07:49:37.521Z,49.40
2023-04-27T07:52:04.793Z,48.70
2023-04-27T07:54:31.725Z,48.80
2023-04-27T07:56:58.609Z,47.20
2023-04-27T07:59:28.422Z,46.70
2023-04-27T08:02:04.061Z,45.00
2023-04-27T08:04:38.247Z,45.40
2023-04-27T08:07:06.043Z,45.00
2023-04-27T08:09:33.521Z,45.20
2023-04-27T08:12:00.470Z,44.00
2023-04-27T08:14:27.350Z,41.50
2023-04-27T08:16:54.140Z,39.30
2023-04-27T08:19:21.239Z,40.00
2023-04-27T08:21:48.132Z,39.20
2023-04-27T08:24:14.869Z,38.10
2023-04-27T08:26:41.838Z,38.50
2023-04-27T08:29:19.533Z,38.20
2023-04-27T08:31:56.266Z,37.80
2023-04-27T08:34:23.690Z,37.00
2023-04-27T08:36:52.077Z,37.80
2023-04-27T08:39:19.172Z,37.40
2023-04-27T08:41:46.406Z,37.70
2023-04-27T08:44:13.373Z,36.30
2023-04-27T08:46:40.924Z,36.60
2023-04-27T08:49:08.150Z,35.90
2023-04-27T08:51:35.326Z,35.90
2023-04-27T08:54:02.441Z,35.40
2023-04-27T08:56:30.601Z,35.40
2023-04-27T08:58:58.921Z,33.50
2023-04-27T09:01:27.266Z,32.00
2023-04-27T09:03:59.039Z,31.40
2023-04-27T09:06:36.240Z,32.10
2023-04-27T09:09:04.123Z,34.10
2023-04-27T09:11:33.686Z,32.10
2023-04-27T09:14:02.755Z,33.20
2023-04-27T09:16:30.674Z,32.50
2023-04-27T09:18:59.070Z,33.70
2023-04-27T09:21:26.794Z,33.00
2023-04-27T09:23:54.126Z,32.40
2023-04-27T09:26:26.838Z,31.70
2023-04-27T09:28:58.657Z,33.30
2023-04-27T09:31:32.164Z,32.50
2023-04-27T09:33:59.058Z,32.20
2023-04-27T09:36:26.603Z,32.10
2023-04-27T09:38:53.702Z,30.70
2023-04-27T09:41:22.524Z,31.00
2023-04-27T09:43:49.355Z,30.70
2023-04-27T09:46:16.402Z,29.90
2023-04-27T09:48:43.281Z,29.40
2023-04-27T09:51:10.035Z,29.80
2023-04-27T09:53:45.932Z,28.90
2023-04-27T09:56:28.451Z,29.00
2023-04-27T09:59:15.355Z,30.10
2023-04-27T10:02:02.812Z,31.10
2023-04-27T10:04:51.843Z,32.90
2023-04-27T10:07:19.310Z,32.50
2023-04-27T10:09:51.636Z,33.30
2023-04-27T10:12:36.455Z,32.30
2023-04-27T10:15:17.125Z,34.80
2023-04-27T10:17:53.040Z,34.10
2023-04-27T10:20:30.659Z,32.40
2023-04-27T10:22:58.804Z,30.30
2023-04-27T10:25:36.916Z,31.00
2023-04-27T10:28:04.274Z,30.10
2023-04-27T10:30:44.018Z,31.80
2023-04-27T10:33:11.933Z,29.10
2023-04-27T10:35:40.993Z,30.20
2023-04-27T10:38:17.536Z,30.30
2023-04-27T10:40:46.111Z,31.10
2023-04-27T10:43:14.849Z,32.00
2023-04-27T10:45:43.219Z,31.60
2023-04-27T10:48:14.290Z,32.40
2023-04-27T10:50:42.575Z,32.80
2023-04-27T10:53:09.435Z,32.80
2023-04-27T10:55:36.788Z,34.10
2023-04-27T10:58:04.442Z,34.50
2023-04-27T11:00:37.320Z,34.10
2023-04-27T11:03:18.281Z,35.50
2023-04-27T11:05:47.113Z,33.90
2023-04-27T11:08:16.310Z,34.20
2023-04-27T11:10:50.971Z,34.70
2023-04-27T11:13:22.475Z,35.90
2023-04-27T11:15:51.802Z,37.20
2023-04-27T11:18:20.909Z,38.50
2023-04-27T11:20:53.397Z,38.40
2023-04-27T11:23:28.826Z,38.70
2023-04-27T11:25:56.858Z,39.30
2023-04-27T11:28:24.455Z,39.80
2023-04-27T11:30:58.573Z,40.30
2023-04-27T11:33:26.438Z,40.40
2023-04-27T11:35:54.071Z,41.50
2023-04-27T11:38:21.940Z,42.60
2023-04-27T11:41:03.972Z,43.40
2023-04-27T11:43:31.645Z,44.00
2023-04-27T11:45:58.969Z,44.30
2023-04-27T11:48:27.422Z,43.90
2023-04-27T11:50:58.906Z,44.00
2023-04-27T11:53:36.524Z,45.30
2023-04-27T11:56:11.111Z,45.10
2023-04-27T11:58:38.774Z,41.30
2023-04-27T12:01:06.902Z,38.40
2023-04-27T12:03:34.337Z,37.40
2023-04-27T12:06:16.204Z,38.60
2023-04-27T12:08:48.385Z,37.20
2023-04-27T12:11:15.150Z,37.50
2023-04-27T12:13:42.009Z,39.20
2023-04-27T12:16:08.862Z,38.30
2023-04-27T12:18:35.600Z,38.50
2023-04-27T12:21:03.466Z,39.10
2023-04-27T12:23:30.892Z,39.80
2023-04-27T12:25:57.776Z,40.50
2023-04-27T12:28:24.653Z,39.50
2023-04-27T12:30:51.675Z,37.90
2023-04-27T12:33:18.473Z,38.40
2023-04-27T12:35:45.353Z,39.30
2023-04-27T12:38:12.144Z,38.40
2023-04-27T12:40:38.891Z,38.40
2023-04-27T12:43:06.777Z,38.90
2023-04-27T12:45:33.542Z,37.90
2023-04-27T12:48:04.011Z,37.10
2023-04-27T12:50:32.690Z,38.40
2023-04-27T12:53:00.132Z,39.00
2023-04-27T12:55:33.620Z,38.90
2023-04-27T12:58:02.041Z,40.00
2023-04-27T13:00:36.186Z,40.90
2023-04-27T13:03:03.230Z,41.90
2023-04-27T13:05:31.879Z,40.80
2023-04-27T13:07:59.147Z,40.70
2023-04-27T13:10:26.004Z,41.40
2023-04-27T13:12:54.771Z,41.50
2023-04-27T13:15:21.665Z,40.70
2023-04-27T13:17:48.509Z,41.00
2023-04-27T13:20:15.486Z,41.80
2023-04-27T13:22:42.326Z,41.80
2023-04-27T13:25:09.687Z,43.90
2023-04-27T13:27:36.793Z,44.50
2023-04-27T13:30:05.080Z,43.30
2023-04-27T13:32:31.885Z,45.00
2023-04-27T13:34:59.543Z,44.50
2023-04-27T13:37:27.119Z,45.00
2023-04-27T13:39:54.123Z,46.90
2023-04-27T13:42:21.691Z,45.70
2023-04-27T13:44:48.397Z,45.50
2023-04-27T13:47:15.456Z,45.60
2023-04-27T13:49:42.360Z,45.90
2023-04-27T13:52:10.082Z,46.40
2023-04-27T13:54:37.117Z,47.30
2023-04-27T13:57:04.091Z,47.90
2023-04-27T13:59:30.918Z,46.90
2023-04-27T14:01:57.728Z,47.50
2023-04-27T14:04:24.618Z,46.50
2023-04-27T14:06:51.509Z,47.30
2023-04-27T14:09:18.740Z,47.70
2023-04-27T14:11:55.775Z,48.90
2023-04-27T14:14:23.556Z,48.30
2023-04-27T14:16:53.341Z,50.00
2023-04-27T14:19:20.684Z,50.80
2023-04-27T14:21:49.130Z,49.10
2023-04-27T14:24:16.187Z,49.50
2023-04-27T14:26:44.100Z,48.60
2023-04-27T14:29:11.687Z,48.70
2023-04-27T14:31:39.260Z,47.40
2023-04-27T14:34:08.400Z,47.90
2023-04-27T14:36:35.916Z,47.00
2023-04-27T14:39:04.544Z,47.40
2023-04-27T14:41:31.501Z,48.00
2023-04-27T14:43:58.400Z,47.20
2023-04-27T14:46:25.220Z,47.40
2023-04-27T14:48:52.103Z,46.60
2023-04-27T14:51:18.960Z,47.90
2023-04-27T14:53:45.841Z,47.90
2023-04-27T14:56:12.620Z,48.70
2023-04-27T14:58:39.430Z,47.80
2023-04-27T15:01:07.226Z,48.70
2023-04-27T15:03:34.244Z,47.10
2023-04-27T15:06:02.081Z,48.30
2023-04-27T15:08:30.672Z,48.50
2023-04-27T15:10:59.892Z,49.50
2023-04-27T15:13:27.601Z,49.70
2023-04-27T15:16:04.861Z,49.30
2023-04-27T15:18:32.028Z,48.10
2023-04-27T15:20:59.840Z,48.40
2023-04-27T15:23:27.538Z,48.70
2023-04-27T15:25:56.442Z,49.50
2023-04-27T15:28:23.839Z,47.40
2023-04-27T15:30:50.810Z,49.10
2023-04-27T15:33:18.259Z,48.20
2023-04-27T15:35:45.155Z,48.60
2023-04-27T15:38:13.201Z,49.60
2023-04-27T15:40:40.527Z,49.00
2023-04-27T15:43:07.334Z,49.20
2023-04-27T15:45:34.177Z,48.50
2023-04-27T15:48:01.485Z,49.60
2023-04-27T15:50:28.813Z,50.20
2023-04-27T15:52:55.587Z,49.00
2023-04-27T15:55:22.562Z,49.90
2023-04-27T15:57:50.309Z,49.40
2023-04-27T16:00:22.468Z,49.30
2023-04-27T16:02:49.798Z,50.00
2023-04-27T16:05:16.994Z,53.70
2023-04-27T16:07:45.028Z,52.40
2023-04-27T16:10:12.576Z,52.30
2023-04-27T16:12:39.655Z,52.30
2023-04-27T16:15:10.007Z,51.90
2023-04-27T16:17:38.295Z,52.80
2023-04-27T16:20:06.835Z,51.40
2023-04-27T16:22:35.061Z,50.00
2023-04-27T16:25:02.350Z,50.30
2023-04-27T16:27:29.093Z,51.20
2023-04-27T16:29:56.717Z,53.60
2023-04-27T16:32:23.752Z,52.20
2023-04-27T16:34:50.740Z,53.30
2023-04-27T16:37:17.560Z,52.90
2023-04-27T16:39:44.710Z,52.10
2023-04-27T16:42:13.339Z,51.20
2023-04-27T16:44:40.203Z,50.90
2023-04-27T16:47:06.989Z,50.70
2023-04-27T16:49:33.882Z,50.00
2023-04-27T16:52:01.249Z,50.10
2023-04-27T16:54:28.062Z,50.00
2023-04-27T16:56:55.289Z,50.70
2023-04-27T16:59:22.389Z,50.40
2023-04-27T17:01:49.300Z,51.00
2023-04-27T17:04:16.717Z,51.60
2023-04-27T17:06:45.866Z,53.10
2023-04-27T17:09:12.864Z,51.70
2023-04-27T17:11:39.820Z,52.30
2023-04-27T17:14:06.603Z,55.00
2023-04-27T17:16:33.394Z,57.60
2023-04-27T17:19:00.156Z,56.40
2023-04-27T17:21:27.467Z,58.10
2023-04-27T17:23:54.377Z,57.60
2023-04-27T17:26:21.510Z,57.80
2023-04-27T17:28:49.101Z,58.00
2023-04-27T17:31:18.956Z,59.70
2023-04-27T17:33:45.901Z,59.70
2023-04-27T17:36:12.959Z,61.30
2023-04-27T17:38:39.731Z,62.90
2023-04-27T17:41:06.459Z,61.20
2023-04-27T17:43:33.263Z,60.10
2023-04-27T17:46:00.173Z,59.70
2023-04-27T17:48:27.020Z,60.00
2023-04-27T17:50:54.155Z,61.00
2023-04-27T17:53:20.980Z,61.50
2023-04-27T17:55:48.021Z,61.70
2023-04-27T17:58:17.027Z,62.30
2023-04-27T18:00:43.973Z,62.80
2023-04-27T18:03:11.985Z,62.60
2023-04-27T18:05:38.988Z,62.70
2023-04-27T18:08:06.025Z,62.30
2023-04-27T18:10:32.777Z,62.90
2023-04-27T18:12:59.641Z,62.80
2023-04-27T18:15:26.468Z,63.30
2023-04-27T18:17:53.493Z,62.90
2023-04-27T18:20:22.957Z,61.90
2023-04-27T18:22:50.093Z,61.80
2023-04-27T18:25:16.844Z,62.00
2023-04-27T18:27:45.164Z,63.20
2023-04-27T18:30:12.237Z,62.50
2023-04-27T18:32:39.046Z,61.20
2023-04-27T18:35:06.370Z,62.10
2023-04-27T18:37:33.303Z,62.10
2023-04-27T18:40:00.147Z,62.00
2023-04-27T18:42:27.010Z,63.80
2023-04-27T18:44:55.249Z,63.80
2023-04-27T18:47:22.185Z,64.50
2023-04-27T18:49:48.915Z,64.50
2023-04-27T18:52:15.879Z,64.90
2023-04-27T18:54:42.840Z,68.30
2023-04-27T18:57:09.781Z,68.70
2023-04-27T18:59:39.380Z,68.10
2023-04-27T19:02:08.665Z,66.80
2023-04-27T19:04:35.829Z,65.40
2023-04-27T19:07:02.814Z,64.90
2023-04-27T19:09:29.587Z,65.30
2023-04-27T19:12:02.701Z,65.30
2023-04-27T19:14:31.434Z,66.10
2023-04-27T19:16:58.289Z,68.90
2023-04-27T19:19:26.516Z,69.60
2023-04-27T19:21:53.746Z,70.10
2023-04-27T19:24:20.864Z,70.40
2023-04-27T19:26:48.252Z,69.70
2023-04-27T19:29:15.337Z,71.30
2023-04-27T19:31:42.566Z,71.80
2023-04-27T19:34:11.525Z,71.40
2023-04-27T19:36:38.870Z,70.60
2023-04-27T19:39:06.083Z,70.10
2023-04-27T19:41:33.184Z,70.60
2023-04-27T19:44:01.034Z,70.00
2023-04-27T19:46:27.819Z,70.30
2023-04-27T19:48:54.657Z,70.30
2023-04-27T19:51:21.407Z,69.70
2023-04-27T19:53:48.189Z,70.50
2023-04-27T19:56:15.141Z,69.30
2023-04-27T19:58:41.944Z,69.60
2023-04-27T20:01:09.888Z,69.40
2023-04-27T20:03:38.687Z,70.50
2023-04-27T20:06:06.117Z,71.60
2023-04-27T20:08:34.099Z,72.40
2023-04-27T20:11:01.077Z,71.90
2023-04-27T20:13:27.847Z,72.20
2023-04-27T20:15:54.666Z,72.20
2023-04-27T20:18:21.442Z,72.40
2023-04-27T20:20:49.594Z,72.10
2023-04-27T20:23:16.335Z,72.10
2023-04-27T20:25:43.094Z,71.80
2023-04-27T20:28:09.846Z,72.80
2023-04-27T20:30:36.659Z,72.70
2023-04-27T20:33:03.899Z,73.00
2023-04-27T20:35:31.273Z,73.00
2023-04-27T20:37:58.056Z,73.30
2023-04-27T20:40:25.653Z,73.20
2023-04-27T20:42:52.372Z,73.30
2023-04-27T20:45:19.443Z,73.30
2023-04-27T20:47:46.407Z,73.50
2023-04-27T20:50:13.372Z,73.30
2023-04-27T20:52:40.120Z,73.70
2023-04-27T20:55:07.405Z,73.30
2023-04-27T20:57:34.170Z,73.90
2023-04-27T21:00:00.954Z,74.00
2023-04-27T21:02:27.742Z,74.30
2023-04-27T21:04:54.576Z,74.10
2023-04-27T21:07:21.459Z,73.90
2023-04-27T21:09:48.194Z,73.90
2023-04-27T21:12:17.133Z,74.20
2023-04-27T21:14:44.346Z,73.40
2023-04-27T21:17:11.378Z,73.00
2023-04-27T21:19:38.206Z,73.40
2023-04-27T21:22:04.975Z,73.00
2023-04-27T21:24:31.722Z,73.40
2023-04-27T21:26:59.067Z,73.50
2023-04-27T21:29:26.025Z,73.80
2023-04-27T21:31:52.817Z,73.60
2023-04-27T21:34:19.794Z,73.70
2023-04-27T21:36:46.513Z,73.20
2023-04-27T21:39:13.378Z,73.20
2023-04-27T21:41:40.997Z,73.50
2023-04-27T21:44:10.060Z,73.60
2023-04-27T21:46:37.380Z,74.00
2023-04-27T21:49:04.589Z,74.10
2023-04-27T21:51:34.761Z,74.00
2023-04-27T21:54:01.734Z,73.80
2023-04-27T21:56:28.927Z,74.00
2023-04-27T21:58:55.943Z,74.10
2023-04-27T22:01:22.766Z,73.90
2023-04-27T22:03:50.281Z,74.70
2023-04-27T22:06:17.427Z,74.30
2023-04-27T22:08:44.276Z,74.30
2023-04-27T22:11:11.107Z,74.80
2023-04-27T22:13:37.886Z,74.20
2023-04-27T22:16:04.967Z,74.10
2023-04-27T22:18:31.827Z,74.00
2023-04-27T22:20:58.571Z,74.00
2023-04-27T22:23:25.305Z,74.30
2023-04-27T22:25:52.094Z,73.90
2023-04-27T22:28:18.928Z,74.00
2023-04-27T22:30:45.713Z,74.50
2023-04-27T22:33:12.594Z,74.30
2023-04-27T22:35:39.495Z,74.70
2023-04-27T22:38:07.392Z,74.70
2023-04-27T22:40:34.238Z,75.00
2023-04-27T22:43:01.105Z,74.60
2023-04-27T22:45:27.881Z,75.30
2023-04-27T22:47:54.681Z,75.20
2023-04-27T22:50:21.414Z,75.30
2023-04-27T22:52:48.262Z,75.60
2023-04-27T22:55:15.054Z,75.80
2023-04-27T22:57:41.962Z,75.30
2023-04-27T23:00:11.326Z,75.30
2023-04-27T23:02:39.595Z,75.10
2023-04-27T23:05:07.266Z,75.60
2023-04-27T23:07:34.498Z,75.40
2023-04-27T23:10:02.887Z,75.40
2023-04-27T23:12:30.749Z,75.50
2023-04-27T23:14:58.200Z,75.40
2023-04-27T23:17:30.551Z,75.70
2023-04-27T23:19:58.955Z,75.40
2023-04-27T23:22:26.273Z,75.50
2023-04-27T23:24:53.885Z,75.10
2023-04-27T23:27:21.317Z,75.40
2023-04-27T23:29:48.022Z,75.60
2023-04-27T23:32:14.818Z,75.70
2023-04-27T23:34:41.613Z,75.70
2023-04-27T23:37:08.497Z,75.30
2023-04-27T23:39:35.275Z,75.20
2023-04-27T23:42:02.108Z,75.50
2023-04-27T23:44:28.854Z,75.60
2023-04-27T23:46:55.615Z,76.00
2023-04-27T23:49:22.474Z,76.10
2023-04-27T23:51:50.062Z,76.00
2023-04-27T23:54:17.004Z,75.70
2023-04-27T23:56:43.991Z,76.20
2023-04-27T23:59:10.984Z,76.50
